sensor_id;sensor_type;location;lat;lon;timestamp;P1;durP1;ratioP1;P2;durP2;ratioP2
69744;SDS011;57015;50.120;-5.168;2023-07-08T00:00:38;12.07;;;4.50;;
69744;SDS011;57015;50.120;-5.168;2023-07-08T00:03:03;10.82;;;4.25;;
69744;SDS011;57015;50.120;-5.168;2023-07-08T00:05:29;14.37;;;4.10;;
69744;SDS011;57015;50.120;-5.168;2023-07-08T00:07:54;14.93;;;4.27;;
69744;SDS011;57015;50.120;-5.168;2023-07-08T00:10:26;13.97;;;4.40;;
69744;SDS011;57015;50.120;-5.168;2023-07-08T00:12:55;19.60;;;4.55;;
69744;SDS011;57015;50.120;-5.168;2023-07-08T00:15:22;12.25;;;4.80;;
69744;SDS011;57015;50.120;-5.168;2023-07-08T00:17:50;14.93;;;4.73;;
69744;SDS011;57015;50.120;-5.168;2023-07-08T00:22:57;13.13;;;4.47;;
69744;SDS011;57015;50.120;-5.168;2023-07-08T00:25:25;13.65;;;4.68;;
69744;SDS011;57015;50.120;-5.168;2023-07-08T00:27:51;12.23;;;4.93;;
69744;SDS011;57015;50.120;-5.168;2023-07-08T00:32:47;13.87;;;4.83;;
69744;SDS011;57015;50.120;-5.168;2023-07-08T00:35:12;10.20;;;4.47;;
69744;SDS011;57015;50.120;-5.168;2023-07-08T00:37:38;12.17;;;4.63;;
69744;SDS011;57015;50.120;-5.168;2023-07-08T00:40:14;12.25;;;4.70;;
69744;SDS011;57015;50.120;-5.168;2023-07-08T00:42:42;10.98;;;4.53;;
69744;SDS011;57015;50.120;-5.168;2023-07-08T00:45:13;13.07;;;4.63;;
69744;SDS011;57015;50.120;-5.168;2023-07-08T00:47:43;13.13;;;4.43;;
69744;SDS011;57015;50.120;-5.168;2023-07-08T00:50:08;14.30;;;4.60;;
69744;SDS011;57015;50.120;-5.168;2023-07-08T00:52:36;16.17;;;4.40;;
69744;SDS011;57015;50.120;-5.168;2023-07-08T00:55:04;18.20;;;4.97;;
69744;SDS011;57015;50.120;-5.168;2023-07-08T00:57:35;15.38;;;4.80;;
69744;SDS011;57015;50.120;-5.168;2023-07-08T01:00:03;18.70;;;5.55;;
69744;SDS011;57015;50.120;-5.168;2023-07-08T01:02:31;12.50;;;4.82;;
69744;SDS011;57015;50.120;-5.168;2023-07-08T01:05:10;18.75;;;5.00;;
69744;SDS011;57015;50.120;-5.168;2023-07-08T01:07:49;18.57;;;5.17;;
69744;SDS011;57015;50.120;-5.168;2023-07-08T01:10:18;14.25;;;4.03;;
69744;SDS011;57015;50.120;-5.168;2023-07-08T01:12:48;14.45;;;5.82;;
69744;SDS011;57015;50.120;-5.168;2023-07-08T01:15:14;17.45;;;4.78;;
69744;SDS011;57015;50.120;-5.168;2023-07-08T01:17:41;11.95;;;4.50;;
69744;SDS011;57015;50.120;-5.168;2023-07-08T01:20:08;15.95;;;4.40;;
69744;SDS011;57015;50.120;-5.168;2023-07-08T01:22:41;12.77;;;4.68;;
69744;SDS011;57015;50.120;-5.168;2023-07-08T01:25:07;17.55;;;4.80;;
69744;SDS011;57015;50.120;-5.168;2023-07-08T01:27:35;15.63;;;4.38;;
69744;SDS011;57015;50.120;-5.168;2023-07-08T01:30:02;11.57;;;3.63;;
69744;SDS011;57015;50.120;-5.168;2023-07-08T01:32:28;15.60;;;4.35;;
69744;SDS011;57015;50.120;-5.168;2023-07-08T01:35:00;12.45;;;4.80;;
69744;SDS011;57015;50.120;-5.168;2023-07-08T01:37:39;12.13;;;4.07;;
69744;SDS011;57015;50.120;-5.168;2023-07-08T01:40:14;14.25;;;4.07;;
69744;SDS011;57015;50.120;-5.168;2023-07-08T01:42:49;12.50;;;3.60;;
69744;SDS011;57015;50.120;-5.168;2023-07-08T01:45:15;11.40;;;4.07;;
69744;SDS011;57015;50.120;-5.168;2023-07-08T01:47:42;16.40;;;5.37;;
69744;SDS011;57015;50.120;-5.168;2023-07-08T01:50:11;15.13;;;4.20;;
69744;SDS011;57015;50.120;-5.168;2023-07-08T01:52:36;12.50;;;4.05;;
69744;SDS011;57015;50.120;-5.168;2023-07-08T01:55:02;20.88;;;5.25;;
69744;SDS011;57015;50.120;-5.168;2023-07-08T01:57:28;11.23;;;3.88;;
69744;SDS011;57015;50.120;-5.168;2023-07-08T01:59:53;16.77;;;4.20;;
69744;SDS011;57015;50.120;-5.168;2023-07-08T02:02:19;15.73;;;4.63;;
69744;SDS011;57015;50.120;-5.168;2023-07-08T02:04:44;16.60;;;4.40;;
69744;SDS011;57015;50.120;-5.168;2023-07-08T02:07:09;17.77;;;4.07;;
69744;SDS011;57015;50.120;-5.168;2023-07-08T02:09:35;19.83;;;4.37;;
69744;SDS011;57015;50.120;-5.168;2023-07-08T02:12:00;16.40;;;4.57;;
69744;SDS011;57015;50.120;-5.168;2023-07-08T02:14:26;13.50;;;4.20;;
69744;SDS011;57015;50.120;-5.168;2023-07-08T02:16:51;14.55;;;4.28;;
69744;SDS011;57015;50.120;-5.168;2023-07-08T02:19:17;14.97;;;3.63;;
69744;SDS011;57015;50.120;-5.168;2023-07-08T02:21:42;17.07;;;4.10;;
69744;SDS011;57015;50.120;-5.168;2023-07-08T02:24:08;17.35;;;3.75;;
69744;SDS011;57015;50.120;-5.168;2023-07-08T02:26:33;13.20;;;3.90;;
69744;SDS011;57015;50.120;-5.168;2023-07-08T02:28:59;17.20;;;3.87;;
69744;SDS011;57015;50.120;-5.168;2023-07-08T02:31:25;13.45;;;4.10;;
69744;SDS011;57015;50.120;-5.168;2023-07-08T02:33:51;16.70;;;3.90;;
69744;SDS011;57015;50.120;-5.168;2023-07-08T02:36:17;14.70;;;3.65;;
69744;SDS011;57015;50.120;-5.168;2023-07-08T02:38:42;16.80;;;3.90;;
69744;SDS011;57015;50.120;-5.168;2023-07-08T02:41:08;10.75;;;3.78;;
69744;SDS011;57015;50.120;-5.168;2023-07-08T02:43:33;12.70;;;3.63;;
69744;SDS011;57015;50.120;-5.168;2023-07-08T02:45:58;14.13;;;3.43;;
69744;SDS011;57015;50.120;-5.168;2023-07-08T02:48:24;18.03;;;4.00;;
69744;SDS011;57015;50.120;-5.168;2023-07-08T02:50:49;16.23;;;4.50;;
69744;SDS011;57015;50.120;-5.168;2023-07-08T02:53:14;15.57;;;4.20;;
69744;SDS011;57015;50.120;-5.168;2023-07-08T02:55:40;18.57;;;3.63;;
69744;SDS011;57015;50.120;-5.168;2023-07-08T02:58:07;14.45;;;3.58;;
69744;SDS011;57015;50.120;-5.168;2023-07-08T03:00:33;16.52;;;4.10;;
69744;SDS011;57015;50.120;-5.168;2023-07-08T03:02:59;16.03;;;3.47;;
69744;SDS011;57015;50.120;-5.168;2023-07-08T03:05:25;13.80;;;3.80;;
69744;SDS011;57015;50.120;-5.168;2023-07-08T03:07:51;15.77;;;3.55;;
69744;SDS011;57015;50.120;-5.168;2023-07-08T03:10:16;13.33;;;4.23;;
69744;SDS011;57015;50.120;-5.168;2023-07-08T03:12:42;15.37;;;3.80;;
69744;SDS011;57015;50.120;-5.168;2023-07-08T03:15:07;14.10;;;3.87;;
69744;SDS011;57015;50.120;-5.168;2023-07-08T03:17:33;20.52;;;3.97;;
69744;SDS011;57015;50.120;-5.168;2023-07-08T03:19:58;16.00;;;4.23;;
69744;SDS011;57015;50.120;-5.168;2023-07-08T03:22:24;24.50;;;3.80;;
69744;SDS011;57015;50.120;-5.168;2023-07-08T03:24:49;18.47;;;3.63;;
69744;SDS011;57015;50.120;-5.168;2023-07-08T03:27:14;16.50;;;4.07;;
69744;SDS011;57015;50.120;-5.168;2023-07-08T03:29:40;17.17;;;3.75;;
69744;SDS011;57015;50.120;-5.168;2023-07-08T03:32:07;17.83;;;3.93;;
69744;SDS011;57015;50.120;-5.168;2023-07-08T03:34:34;18.90;;;3.65;;
69744;SDS011;57015;50.120;-5.168;2023-07-08T03:37:00;19.17;;;4.37;;
69744;SDS011;57015;50.120;-5.168;2023-07-08T03:39:25;21.77;;;3.85;;
69744;SDS011;57015;50.120;-5.168;2023-07-08T03:41:51;18.37;;;3.90;;
69744;SDS011;57015;50.120;-5.168;2023-07-08T03:44:17;17.27;;;4.00;;
69744;SDS011;57015;50.120;-5.168;2023-07-08T03:46:43;18.13;;;3.77;;
69744;SDS011;57015;50.120;-5.168;2023-07-08T03:49:09;21.55;;;3.60;;
69744;SDS011;57015;50.120;-5.168;2023-07-08T03:51:36;18.83;;;4.00;;
69744;SDS011;57015;50.120;-5.168;2023-07-08T03:54:03;17.70;;;3.88;;
69744;SDS011;57015;50.120;-5.168;2023-07-08T03:56:29;20.42;;;4.03;;
69744;SDS011;57015;50.120;-5.168;2023-07-08T03:58:55;21.57;;;4.40;;
69744;SDS011;57015;50.120;-5.168;2023-07-08T04:01:21;25.93;;;4.00;;
69744;SDS011;57015;50.120;-5.168;2023-07-08T04:03:49;23.73;;;4.15;;
69744;SDS011;57015;50.120;-5.168;2023-07-08T04:06:16;23.08;;;4.38;;
69744;SDS011;57015;50.120;-5.168;2023-07-08T04:08:41;25.67;;;4.07;;
69744;SDS011;57015;50.120;-5.168;2023-07-08T04:11:08;24.88;;;4.32;;
69744;SDS011;57015;50.120;-5.168;2023-07-08T04:13:36;19.10;;;3.83;;
69744;SDS011;57015;50.120;-5.168;2023-07-08T04:16:02;25.75;;;4.10;;
69744;SDS011;57015;50.120;-5.168;2023-07-08T04:18:28;22.07;;;4.27;;
69744;SDS011;57015;50.120;-5.168;2023-07-08T04:20:54;20.30;;;5.28;;
69744;SDS011;57015;50.120;-5.168;2023-07-08T04:23:19;21.77;;;4.47;;
69744;SDS011;57015;50.120;-5.168;2023-07-08T04:25:46;28.30;;;4.32;;
69744;SDS011;57015;50.120;-5.168;2023-07-08T04:28:12;25.40;;;3.77;;
69744;SDS011;57015;50.120;-5.168;2023-07-08T04:30:37;21.75;;;3.80;;
69744;SDS011;57015;50.120;-5.168;2023-07-08T04:33:15;18.80;;;4.27;;
69744;SDS011;57015;50.120;-5.168;2023-07-08T04:35:41;17.73;;;4.00;;
69744;SDS011;57015;50.120;-5.168;2023-07-08T04:38:18;25.30;;;3.53;;
69744;SDS011;57015;50.120;-5.168;2023-07-08T04:40:46;18.88;;;3.45;;
69744;SDS011;57015;50.120;-5.168;2023-07-08T04:43:12;22.85;;;3.97;;
69744;SDS011;57015;50.120;-5.168;2023-07-08T04:45:41;17.03;;;3.40;;
69744;SDS011;57015;50.120;-5.168;2023-07-08T04:48:11;18.67;;;3.40;;
69744;SDS011;57015;50.120;-5.168;2023-07-08T04:50:42;21.33;;;4.10;;
69744;SDS011;57015;50.120;-5.168;2023-07-08T04:53:08;21.60;;;3.05;;
69744;SDS011;57015;50.120;-5.168;2023-07-08T04:55:35;14.10;;;3.40;;
69744;SDS011;57015;50.120;-5.168;2023-07-08T04:58:01;16.65;;;3.20;;
69744;SDS011;57015;50.120;-5.168;2023-07-08T05:00:27;14.37;;;2.87;;
69744;SDS011;57015;50.120;-5.168;2023-07-08T05:02:52;19.52;;;3.60;;
69744;SDS011;57015;50.120;-5.168;2023-07-08T05:05:19;14.33;;;3.10;;
69744;SDS011;57015;50.120;-5.168;2023-07-08T05:07:44;13.32;;;2.22;;
69744;SDS011;57015;50.120;-5.168;2023-07-08T05:10:10;19.87;;;3.17;;
69744;SDS011;57015;50.120;-5.168;2023-07-08T05:12:35;20.23;;;2.87;;
69744;SDS011;57015;50.120;-5.168;2023-07-08T05:15:01;21.25;;;3.45;;
69744;SDS011;57015;50.120;-5.168;2023-07-08T05:17:27;24.17;;;2.83;;
69744;SDS011;57015;50.120;-5.168;2023-07-08T05:19:53;16.25;;;2.33;;
69744;SDS011;57015;50.120;-5.168;2023-07-08T05:22:19;17.13;;;2.43;;
69744;SDS011;57015;50.120;-5.168;2023-07-08T05:24:50;18.55;;;2.33;;
69744;SDS011;57015;50.120;-5.168;2023-07-08T05:27:17;12.85;;;2.88;;
69744;SDS011;57015;50.120;-5.168;2023-07-08T05:29:43;19.33;;;2.28;;
69744;SDS011;57015;50.120;-5.168;2023-07-08T05:32:10;13.50;;;1.58;;
69744;SDS011;57015;50.120;-5.168;2023-07-08T05:34:36;15.00;;;2.33;;
69744;SDS011;57015;50.120;-5.168;2023-07-08T05:37:01;16.10;;;1.87;;
69744;SDS011;57015;50.120;-5.168;2023-07-08T05:39:26;25.00;;;3.23;;
69744;SDS011;57015;50.120;-5.168;2023-07-08T05:41:52;18.03;;;2.60;;
69744;SDS011;57015;50.120;-5.168;2023-07-08T05:44:17;18.27;;;2.10;;
69744;SDS011;57015;50.120;-5.168;2023-07-08T05:46:42;26.57;;;3.17;;
69744;SDS011;57015;50.120;-5.168;2023-07-08T05:49:08;17.70;;;2.70;;
69744;SDS011;57015;50.120;-5.168;2023-07-08T05:51:33;16.37;;;2.37;;
69744;SDS011;57015;50.120;-5.168;2023-07-08T05:53:59;15.67;;;2.20;;
69744;SDS011;57015;50.120;-5.168;2023-07-08T05:56:24;13.27;;;2.53;;
69744;SDS011;57015;50.120;-5.168;2023-07-08T05:58:50;16.20;;;1.93;;
69744;SDS011;57015;50.120;-5.168;2023-07-08T06:01:15;14.40;;;2.38;;
69744;SDS011;57015;50.120;-5.168;2023-07-08T06:03:40;15.55;;;2.33;;
69744;SDS011;57015;50.120;-5.168;2023-07-08T06:06:06;19.83;;;2.10;;
69744;SDS011;57015;50.120;-5.168;2023-07-08T06:08:31;15.53;;;2.47;;
69744;SDS011;57015;50.120;-5.168;2023-07-08T06:10:56;19.10;;;3.23;;
69744;SDS011;57015;50.120;-5.168;2023-07-08T06:13:22;23.40;;;2.60;;
69744;SDS011;57015;50.120;-5.168;2023-07-08T06:15:47;18.60;;;3.00;;
69744;SDS011;57015;50.120;-5.168;2023-07-08T06:18:13;24.40;;;3.03;;
69744;SDS011;57015;50.120;-5.168;2023-07-08T06:20:38;20.30;;;3.13;;
69744;SDS011;57015;50.120;-5.168;2023-07-08T06:23:03;21.53;;;2.20;;
69744;SDS011;57015;50.120;-5.168;2023-07-08T06:25:29;20.87;;;2.43;;
69744;SDS011;57015;50.120;-5.168;2023-07-08T06:27:54;21.92;;;2.47;;
69744;SDS011;57015;50.120;-5.168;2023-07-08T06:30:20;20.13;;;2.55;;
69744;SDS011;57015;50.120;-5.168;2023-07-08T06:32:45;18.90;;;3.13;;
69744;SDS011;57015;50.120;-5.168;2023-07-08T06:35:11;21.27;;;2.43;;
69744;SDS011;57015;50.120;-5.168;2023-07-08T06:37:36;20.20;;;3.03;;
69744;SDS011;57015;50.120;-5.168;2023-07-08T06:40:02;19.75;;;2.53;;
69744;SDS011;57015;50.120;-5.168;2023-07-08T06:42:28;27.33;;;3.45;;
69744;SDS011;57015;50.120;-5.168;2023-07-08T06:44:54;24.17;;;4.03;;
69744;SDS011;57015;50.120;-5.168;2023-07-08T06:47:20;31.17;;;3.53;;
69744;SDS011;57015;50.120;-5.168;2023-07-08T06:49:46;27.67;;;3.88;;
69744;SDS011;57015;50.120;-5.168;2023-07-08T06:52:12;21.88;;;3.35;;
69744;SDS011;57015;50.120;-5.168;2023-07-08T06:54:38;20.33;;;2.67;;
69744;SDS011;57015;50.120;-5.168;2023-07-08T06:57:03;24.73;;;2.87;;
69744;SDS011;57015;50.120;-5.168;2023-07-08T06:59:29;18.35;;;2.47;;
69744;SDS011;57015;50.120;-5.168;2023-07-08T07:01:54;17.77;;;2.13;;
69744;SDS011;57015;50.120;-5.168;2023-07-08T07:04:20;18.70;;;2.40;;
69744;SDS011;57015;50.120;-5.168;2023-07-08T07:06:45;20.10;;;2.73;;
69744;SDS011;57015;50.120;-5.168;2023-07-08T07:09:10;18.77;;;2.25;;
69744;SDS011;57015;50.120;-5.168;2023-07-08T07:11:36;20.05;;;2.42;;
69744;SDS011;57015;50.120;-5.168;2023-07-08T07:14:01;20.87;;;2.53;;
69744;SDS011;57015;50.120;-5.168;2023-07-08T07:16:27;19.10;;;2.78;;
69744;SDS011;57015;50.120;-5.168;2023-07-08T07:18:52;12.85;;;2.00;;
69744;SDS011;57015;50.120;-5.168;2023-07-08T07:21:18;15.10;;;2.10;;
69744;SDS011;57015;50.120;-5.168;2023-07-08T07:23:44;16.67;;;3.70;;
69744;SDS011;57015;50.120;-5.168;2023-07-08T07:26:09;18.08;;;1.85;;
69744;SDS011;57015;50.120;-5.168;2023-07-08T07:28:34;15.75;;;2.38;;
69744;SDS011;57015;50.120;-5.168;2023-07-08T07:31:00;17.97;;;2.53;;
69744;SDS011;57015;50.120;-5.168;2023-07-08T07:33:25;18.67;;;1.83;;
69744;SDS011;57015;50.120;-5.168;2023-07-08T07:35:51;17.90;;;2.47;;
69744;SDS011;57015;50.120;-5.168;2023-07-08T07:38:17;17.87;;;2.80;;
69744;SDS011;57015;50.120;-5.168;2023-07-08T07:40:43;18.30;;;2.30;;
69744;SDS011;57015;50.120;-5.168;2023-07-08T07:43:08;18.63;;;2.38;;
69744;SDS011;57015;50.120;-5.168;2023-07-08T07:45:34;17.97;;;2.07;;
69744;SDS011;57015;50.120;-5.168;2023-07-08T07:47:59;19.42;;;2.00;;
69744;SDS011;57015;50.120;-5.168;2023-07-08T07:50:25;16.03;;;1.67;;
69744;SDS011;57015;50.120;-5.168;2023-07-08T07:52:50;16.60;;;1.87;;
69744;SDS011;57015;50.120;-5.168;2023-07-08T07:55:15;15.77;;;1.87;;
69744;SDS011;57015;50.120;-5.168;2023-07-08T07:57:41;13.10;;;1.30;;
69744;SDS011;57015;50.120;-5.168;2023-07-08T08:00:11;15.02;;;2.42;;
69744;SDS011;57015;50.120;-5.168;2023-07-08T08:02:37;13.90;;;1.98;;
69744;SDS011;57015;50.120;-5.168;2023-07-08T08:05:02;12.03;;;1.70;;
69744;SDS011;57015;50.120;-5.168;2023-07-08T08:07:28;15.15;;;1.85;;
69744;SDS011;57015;50.120;-5.168;2023-07-08T08:09:53;15.37;;;1.77;;
69744;SDS011;57015;50.120;-5.168;2023-07-08T08:12:18;16.40;;;1.93;;
69744;SDS011;57015;50.120;-5.168;2023-07-08T08:14:44;14.17;;;1.80;;
69744;SDS011;57015;50.120;-5.168;2023-07-08T08:17:09;19.13;;;2.20;;
69744;SDS011;57015;50.120;-5.168;2023-07-08T08:19:35;16.30;;;1.67;;
69744;SDS011;57015;50.120;-5.168;2023-07-08T08:22:00;12.93;;;1.60;;
69744;SDS011;57015;50.120;-5.168;2023-07-08T08:24:26;12.73;;;1.77;;
69744;SDS011;57015;50.120;-5.168;2023-07-08T08:26:51;16.00;;;1.90;;
69744;SDS011;57015;50.120;-5.168;2023-07-08T08:29:17;15.23;;;1.93;;
69744;SDS011;57015;50.120;-5.168;2023-07-08T08:31:42;20.53;;;1.83;;
69744;SDS011;57015;50.120;-5.168;2023-07-08T08:34:08;15.43;;;2.07;;
69744;SDS011;57015;50.120;-5.168;2023-07-08T08:36:33;21.33;;;2.03;;
69744;SDS011;57015;50.120;-5.168;2023-07-08T08:38:58;11.15;;;1.65;;
69744;SDS011;57015;50.120;-5.168;2023-07-08T08:41:34;14.50;;;2.07;;
69744;SDS011;57015;50.120;-5.168;2023-07-08T08:44:01;10.67;;;1.70;;
69744;SDS011;57015;50.120;-5.168;2023-07-08T08:51:47;16.88;;;2.53;;
69744;SDS011;57015;50.120;-5.168;2023-07-08T08:54:13;19.55;;;2.10;;
69744;SDS011;57015;50.120;-5.168;2023-07-08T09:02:34;14.07;;;1.90;;
69744;SDS011;57015;50.120;-5.168;2023-07-08T09:05:05;13.40;;;1.90;;
69744;SDS011;57015;50.120;-5.168;2023-07-08T09:07:39;9.73;;;1.67;;
69744;SDS011;57015;50.120;-5.168;2023-07-08T09:10:15;12.90;;;2.03;;
69744;SDS011;57015;50.120;-5.168;2023-07-08T09:12:46;15.52;;;1.83;;
69744;SDS011;57015;50.120;-5.168;2023-07-08T09:15:14;9.97;;;1.70;;
69744;SDS011;57015;50.120;-5.168;2023-07-08T09:17:40;14.32;;;1.73;;
69744;SDS011;57015;50.120;-5.168;2023-07-08T09:20:18;17.83;;;3.15;;
69744;SDS011;57015;50.120;-5.168;2023-07-08T09:22:58;15.07;;;2.05;;
69744;SDS011;57015;50.120;-5.168;2023-07-08T09:25:47;11.65;;;1.23;;
69744;SDS011;57015;50.120;-5.168;2023-07-08T09:28:16;11.90;;;1.73;;
69744;SDS011;57015;50.120;-5.168;2023-07-08T09:30:41;11.60;;;2.00;;
69744;SDS011;57015;50.120;-5.168;2023-07-08T09:33:10;13.48;;;1.73;;
69744;SDS011;57015;50.120;-5.168;2023-07-08T09:35:40;10.27;;;1.40;;
69744;SDS011;57015;50.120;-5.168;2023-07-08T09:38:08;12.25;;;1.45;;
69744;SDS011;57015;50.120;-5.168;2023-07-08T09:40:34;8.80;;;1.48;;
69744;SDS011;57015;50.120;-5.168;2023-07-08T09:43:03;11.03;;;1.37;;
69744;SDS011;57015;50.120;-5.168;2023-07-08T09:45:47;13.15;;;1.33;;
69744;SDS011;57015;50.120;-5.168;2023-07-08T09:48:26;10.73;;;1.47;;
69744;SDS011;57015;50.120;-5.168;2023-07-08T09:50:53;10.38;;;1.80;;
69744;SDS011;57015;50.120;-5.168;2023-07-08T09:53:19;10.88;;;1.67;;
69744;SDS011;57015;50.120;-5.168;2023-07-08T09:55:44;11.93;;;1.17;;
69744;SDS011;57015;50.120;-5.168;2023-07-08T09:58:11;8.30;;;0.80;;
69744;SDS011;57015;50.120;-5.168;2023-07-08T10:00:39;7.13;;;1.33;;
69744;SDS011;57015;50.120;-5.168;2023-07-08T10:03:12;5.15;;;1.08;;
69744;SDS011;57015;50.120;-5.168;2023-07-08T10:05:43;8.00;;;0.98;;
69744;SDS011;57015;50.120;-5.168;2023-07-08T10:08:13;8.43;;;1.50;;
69744;SDS011;57015;50.120;-5.168;2023-07-08T10:10:41;8.13;;;0.95;;
69744;SDS011;57015;50.120;-5.168;2023-07-08T10:13:24;7.95;;;0.82;;
69744;SDS011;57015;50.120;-5.168;2023-07-08T10:16:36;10.23;;;1.30;;
69744;SDS011;57015;50.120;-5.168;2023-07-08T10:18:48;8.77;;;1.30;;
69744;SDS011;57015;50.120;-5.168;2023-07-08T10:21:18;11.23;;;1.20;;
69744;SDS011;57015;50.120;-5.168;2023-07-08T10:26:34;9.38;;;1.20;;
69744;SDS011;57015;50.120;-5.168;2023-07-08T10:31:53;9.73;;;1.13;;
69744;SDS011;57015;50.120;-5.168;2023-07-08T10:34:28;9.60;;;1.60;;
69744;SDS011;57015;50.120;-5.168;2023-07-08T10:43:19;5.97;;;1.08;;
69744;SDS011;57015;50.120;-5.168;2023-07-08T10:51:26;5.63;;;0.93;;
69744;SDS011;57015;50.120;-5.168;2023-07-08T10:59:48;9.93;;;1.33;;
69744;SDS011;57015;50.120;-5.168;2023-07-08T11:02:50;7.80;;;1.02;;
69744;SDS011;57015;50.120;-5.168;2023-07-08T11:05:42;8.85;;;1.38;;
69744;SDS011;57015;50.120;-5.168;2023-07-08T11:10:54;10.02;;;1.55;;
69744;SDS011;57015;50.120;-5.168;2023-07-08T11:13:23;8.33;;;1.20;;
69744;SDS011;57015;50.120;-5.168;2023-07-08T11:16:02;9.27;;;2.13;;
69744;SDS011;57015;50.120;-5.168;2023-07-08T11:18:46;15.10;;;2.13;;
69744;SDS011;57015;50.120;-5.168;2023-07-08T11:21:21;9.13;;;0.80;;
69744;SDS011;57015;50.120;-5.168;2023-07-08T11:24:10;11.63;;;2.20;;
69744;SDS011;57015;50.120;-5.168;2023-07-08T11:26:58;11.33;;;1.33;;
69744;SDS011;57015;50.120;-5.168;2023-07-08T11:32:01;14.77;;;1.45;;
69744;SDS011;57015;50.120;-5.168;2023-07-08T11:34:27;10.63;;;1.70;;
69744;SDS011;57015;50.120;-5.168;2023-07-08T11:36:53;9.73;;;1.88;;
69744;SDS011;57015;50.120;-5.168;2023-07-08T11:42:11;10.40;;;1.85;;
69744;SDS011;57015;50.120;-5.168;2023-07-08T11:44:42;11.18;;;1.75;;
69744;SDS011;57015;50.120;-5.168;2023-07-08T11:47:44;8.20;;;1.95;;
69744;SDS011;57015;50.120;-5.168;2023-07-08T11:50:13;6.97;;;1.15;;
69744;SDS011;57015;50.120;-5.168;2023-07-08T11:52:50;14.50;;;1.50;;
69744;SDS011;57015;50.120;-5.168;2023-07-08T11:55:26;11.48;;;2.08;;
69744;SDS011;57015;50.120;-5.168;2023-07-08T11:58:00;12.90;;;1.70;;
69744;SDS011;57015;50.120;-5.168;2023-07-08T12:00:26;9.43;;;1.80;;
69744;SDS011;57015;50.120;-5.168;2023-07-08T12:02:58;9.73;;;1.57;;
69744;SDS011;57015;50.120;-5.168;2023-07-08T12:05:28;8.32;;;1.73;;
69744;SDS011;57015;50.120;-5.168;2023-07-08T12:07:56;12.55;;;1.80;;
69744;SDS011;57015;50.120;-5.168;2023-07-08T12:10:32;9.07;;;1.45;;
69744;SDS011;57015;50.120;-5.168;2023-07-08T12:13:00;9.57;;;1.25;;
69744;SDS011;57015;50.120;-5.168;2023-07-08T12:15:26;11.03;;;1.57;;
69744;SDS011;57015;50.120;-5.168;2023-07-08T12:18:00;11.57;;;1.77;;
69744;SDS011;57015;50.120;-5.168;2023-07-08T12:20:32;12.32;;;1.77;;
69744;SDS011;57015;50.120;-5.168;2023-07-08T12:23:00;9.90;;;1.20;;
69744;SDS011;57015;50.120;-5.168;2023-07-08T12:25:32;10.70;;;1.70;;
69744;SDS011;57015;50.120;-5.168;2023-07-08T12:28:00;10.70;;;1.87;;
69744;SDS011;57015;50.120;-5.168;2023-07-08T12:30:27;12.95;;;1.85;;
69744;SDS011;57015;50.120;-5.168;2023-07-08T12:32:54;11.95;;;1.65;;
69744;SDS011;57015;50.120;-5.168;2023-07-08T12:35:25;13.40;;;1.92;;
69744;SDS011;57015;50.120;-5.168;2023-07-08T12:37:52;12.85;;;2.60;;
69744;SDS011;57015;50.120;-5.168;2023-07-08T12:40:20;9.53;;;2.00;;
69744;SDS011;57015;50.120;-5.168;2023-07-08T12:42:46;14.63;;;2.30;;
69744;SDS011;57015;50.120;-5.168;2023-07-08T12:45:16;11.82;;;2.33;;
69744;SDS011;57015;50.120;-5.168;2023-07-08T12:47:43;14.32;;;1.98;;
69744;SDS011;57015;50.120;-5.168;2023-07-08T12:50:10;15.75;;;2.33;;
69744;SDS011;57015;50.120;-5.168;2023-07-08T12:52:36;12.95;;;2.20;;
69744;SDS011;57015;50.120;-5.168;2023-07-08T12:55:01;13.47;;;2.13;;
69744;SDS011;57015;50.120;-5.168;2023-07-08T12:57:26;11.37;;;2.13;;
69744;SDS011;57015;50.120;-5.168;2023-07-08T12:59:52;14.23;;;2.60;;
69744;SDS011;57015;50.120;-5.168;2023-07-08T13:02:18;10.40;;;2.05;;
69744;SDS011;57015;50.120;-5.168;2023-07-08T13:04:45;10.07;;;1.67;;
69744;SDS011;57015;50.120;-5.168;2023-07-08T13:07:32;7.95;;;2.50;;
69744;SDS011;57015;50.120;-5.168;2023-07-08T13:10:00;11.93;;;2.13;;
69744;SDS011;57015;50.120;-5.168;2023-07-08T13:12:25;9.82;;;2.08;;
69744;SDS011;57015;50.120;-5.168;2023-07-08T13:14:51;7.30;;;1.40;;
69744;SDS011;57015;50.120;-5.168;2023-07-08T13:17:18;12.80;;;1.98;;
69744;SDS011;57015;50.120;-5.168;2023-07-08T13:19:44;12.60;;;1.87;;
69744;SDS011;57015;50.120;-5.168;2023-07-08T13:22:16;11.80;;;1.70;;
69744;SDS011;57015;50.120;-5.168;2023-07-08T13:24:45;12.90;;;2.22;;
69744;SDS011;57015;50.120;-5.168;2023-07-08T13:27:18;13.60;;;2.60;;
69744;SDS011;57015;50.120;-5.168;2023-07-08T13:29:47;12.38;;;2.33;;
69744;SDS011;57015;50.120;-5.168;2023-07-08T13:32:12;15.17;;;2.87;;
69744;SDS011;57015;50.120;-5.168;2023-07-08T13:34:39;12.77;;;2.00;;
69744;SDS011;57015;50.120;-5.168;2023-07-08T13:37:08;8.27;;;1.23;;
69744;SDS011;57015;50.120;-5.168;2023-07-08T13:39:36;12.23;;;2.15;;
69744;SDS011;57015;50.120;-5.168;2023-07-08T13:42:02;11.55;;;1.60;;
69744;SDS011;57015;50.120;-5.168;2023-07-08T13:44:28;10.63;;;2.40;;
69744;SDS011;57015;50.120;-5.168;2023-07-08T13:46:54;10.85;;;1.73;;
69744;SDS011;57015;50.120;-5.168;2023-07-08T13:51:55;10.10;;;1.83;;
69744;SDS011;57015;50.120;-5.168;2023-07-08T13:54:34;8.95;;;1.70;;
69744;SDS011;57015;50.120;-5.168;2023-07-08T13:57:08;10.48;;;1.60;;
69744;SDS011;57015;50.120;-5.168;2023-07-08T13:59:34;12.10;;;1.95;;
69744;SDS011;57015;50.120;-5.168;2023-07-08T14:01:59;7.27;;;1.33;;
69744;SDS011;57015;50.120;-5.168;2023-07-08T14:04:29;11.87;;;2.40;;
69744;SDS011;57015;50.120;-5.168;2023-07-08T14:06:57;12.30;;;2.05;;
69744;SDS011;57015;50.120;-5.168;2023-07-08T14:09:23;13.80;;;1.93;;
69744;SDS011;57015;50.120;-5.168;2023-07-08T14:11:50;13.80;;;1.73;;
69744;SDS011;57015;50.120;-5.168;2023-07-08T14:14:16;12.02;;;1.63;;
69744;SDS011;57015;50.120;-5.168;2023-07-08T14:16:45;12.93;;;1.90;;
69744;SDS011;57015;50.120;-5.168;2023-07-08T14:19:14;9.90;;;1.65;;
69744;SDS011;57015;50.120;-5.168;2023-07-08T14:21:42;12.63;;;3.03;;
69744;SDS011;57015;50.120;-5.168;2023-07-08T14:24:09;10.13;;;1.70;;
69744;SDS011;57015;50.120;-5.168;2023-07-08T14:26:36;13.55;;;1.88;;
69744;SDS011;57015;50.120;-5.168;2023-07-08T14:29:01;11.93;;;2.63;;
69744;SDS011;57015;50.120;-5.168;2023-07-08T14:31:27;10.10;;;1.80;;
69744;SDS011;57015;50.120;-5.168;2023-07-08T14:33:57;9.77;;;1.98;;
69744;SDS011;57015;50.120;-5.168;2023-07-08T14:36:26;11.07;;;1.47;;
69744;SDS011;57015;50.120;-5.168;2023-07-08T14:38:52;9.90;;;1.17;;
69744;SDS011;57015;50.120;-5.168;2023-07-08T14:41:17;12.10;;;1.60;;
69744;SDS011;57015;50.120;-5.168;2023-07-08T14:43:42;24.50;;;2.73;;
69744;SDS011;57015;50.120;-5.168;2023-07-08T14:46:08;10.45;;;1.30;;
69744;SDS011;57015;50.120;-5.168;2023-07-08T14:48:34;10.17;;;1.40;;
69744;SDS011;57015;50.120;-5.168;2023-07-08T14:51:00;11.90;;;1.73;;
69744;SDS011;57015;50.120;-5.168;2023-07-08T14:53:25;11.63;;;1.60;;
69744;SDS011;57015;50.120;-5.168;2023-07-08T14:55:51;10.10;;;2.07;;
69744;SDS011;57015;50.120;-5.168;2023-07-08T15:00:43;11.10;;;1.87;;
69744;SDS011;57015;50.120;-5.168;2023-07-08T15:03:08;10.03;;;1.47;;
69744;SDS011;57015;50.120;-5.168;2023-07-08T15:05:35;11.55;;;1.80;;
69744;SDS011;57015;50.120;-5.168;2023-07-08T15:08:00;9.60;;;1.37;;
69744;SDS011;57015;50.120;-5.168;2023-07-08T15:10:27;11.27;;;2.23;;
69744;SDS011;57015;50.120;-5.168;2023-07-08T15:12:54;13.38;;;1.55;;
69744;SDS011;57015;50.120;-5.168;2023-07-08T15:15:30;7.28;;;1.67;;
69744;SDS011;57015;50.120;-5.168;2023-07-08T15:17:57;8.77;;;1.67;;
69744;SDS011;57015;50.120;-5.168;2023-07-08T15:20:23;10.20;;;1.90;;